createdAt,value
2023-03-26T00:01:41.747Z,97071.47
2023-03-26T00:04:09.223Z,97069.44
2023-03-26T00:06:40.066Z,97079.66
2023-03-26T00:09:13.628Z,97079.66
2023-03-26T00:11:43.166Z,97074.88
2023-03-26T00:14:14.200Z,97073.38
2023-03-26T00:16:45.148Z,97086.41
2023-03-26T00:19:12.913Z,97093.88
2023-03-26T00:21:41.624Z,97113.63
2023-03-26T00:24:15.274Z,97109.25
2023-03-26T00:26:44.776Z,97107.13
2023-03-26T00:29:14.000Z,97096.44
2023-03-26T00:31:46.380Z,97078.91
2023-03-26T00:34:18.572Z,97085.78
2023-03-26T00:36:47.279Z,97074.44
2023-03-26T00:39:15.394Z,97077.28
2023-03-26T00:41:43.788Z,97073.03
2023-03-26T00:44:11.654Z,97068.06
2023-03-26T00:46:39.809Z,97061.91
2023-03-26T00:49:11.193Z,97069.00
2023-03-26T00:51:39.456Z,97057.66
2023-03-26T00:54:08.345Z,97059.78
2023-03-26T00:56:36.369Z,97053.41
2023-03-26T00:59:04.004Z,97046.06
2023-03-26T01:01:32.547Z,97038.56
2023-03-26T01:04:31.176Z,97043.78
2023-03-26T01:07:10.356Z,97042.56
2023-03-26T01:09:50.292Z,97036.91
2023-03-26T01:12:24.577Z,97029.31
2023-03-26T01:15:01.060Z,97031.34
2023-03-26T01:17:38.032Z,97033.72
2023-03-26T01:20:26.912Z,97026.53
2023-03-26T01:23:05.446Z,97030.06
2023-03-26T01:25:45.735Z,97026.03
2023-03-26T01:28:17.607Z,97028.19
2023-03-26T01:31:20.296Z,97026.88
2023-03-26T01:34:05.909Z,97029.47
2023-03-26T01:36:59.055Z,97029.72
2023-03-26T01:39:49.542Z,97024.69
2023-03-26T01:42:59.204Z,97017.16
2023-03-26T01:45:34.152Z,97011.09
2023-03-26T01:48:01.917Z,97017.97
2023-03-26T01:50:29.608Z,97021.66
2023-03-26T01:52:57.127Z,97013.47
2023-03-26T01:55:49.631Z,97016.19
2023-03-26T01:58:37.529Z,97013.47
2023-03-26T02:01:24.620Z,97014.09
2023-03-26T02:04:33.495Z,97010.78
2023-03-26T02:07:18.007Z,97018.66
2023-03-26T02:09:52.809Z,97007.81
2023-03-26T02:12:23.110Z,97021.25
2023-03-26T02:14:50.717Z,97017.84
2023-03-26T02:17:19.195Z,97011.88
2023-03-26T02:19:48.072Z,97017.53
2023-03-26T02:22:16.163Z,97011.13
2023-03-26T02:24:45.325Z,97005.22
2023-03-26T02:27:12.981Z,97022.13
2023-03-26T02:29:41.389Z,97019.41
2023-03-26T02:32:14.598Z,97016.09
2023-03-26T02:34:42.982Z,97014.47
2023-03-26T02:37:10.777Z,97024.50
2023-03-26T02:39:38.259Z,97029.81
2023-03-26T02:42:06.096Z,97031.47
2023-03-26T02:44:33.461Z,97023.69
2023-03-26T02:47:01.376Z,97013.84
2023-03-26T02:49:29.077Z,97011.03
2023-03-26T02:51:57.098Z,97013.63
2023-03-26T02:54:24.445Z,97010.44
2023-03-26T02:56:52.041Z,97005.13
2023-03-26T02:59:19.357Z,96998.63
2023-03-26T03:01:46.873Z,96993.16
2023-03-26T03:04:14.180Z,96990.81
2023-03-26T03:06:41.836Z,96988.34
2023-03-26T03:09:09.189Z,96992.47
2023-03-26T03:11:41.148Z,97000.25
2023-03-26T03:14:08.418Z,96998.84
2023-03-26T03:16:36.012Z,96999.91
2023-03-26T03:19:03.398Z,96997.66
2023-03-26T03:21:31.021Z,96999.53
2023-03-26T03:23:59.717Z,97007.00
2023-03-26T03:26:30.109Z,96993.06
2023-03-26T03:28:58.837Z,96990.31
2023-03-26T03:31:27.346Z,96991.78
2023-03-26T03:33:54.716Z,96985.13
2023-03-26T03:36:28.081Z,96993.19
2023-03-26T03:38:55.519Z,96996.97
2023-03-26T03:41:23.157Z,96994.81
2023-03-26T03:43:51.986Z,96990.94
2023-03-26T03:46:19.813Z,96993.75
2023-03-26T03:48:49.942Z,97015.88
2023-03-26T03:51:18.592Z,97005.59
2023-03-26T03:53:46.309Z,97007.13
2023-03-26T03:56:14.893Z,97010.56
2023-03-26T03:58:42.367Z,97010.91
2023-03-26T04:01:11.256Z,97003.31
2023-03-26T04:03:39.109Z,97017.66
2023-03-26T04:06:07.955Z,97007.47
2023-03-26T04:08:35.674Z,97007.25
2023-03-26T04:11:03.362Z,97018.25
2023-03-26T04:13:30.794Z,97010.44
2023-03-26T04:16:00.068Z,97005.00
2023-03-26T04:18:27.912Z,97016.22
2023-03-26T04:20:55.944Z,96999.56
2023-03-26T04:23:26.738Z,96999.31
2023-03-26T04:25:58.112Z,97003.13
2023-03-26T04:28:36.375Z,96998.16
2023-03-26T04:31:04.271Z,96998.75
2023-03-26T04:33:35.196Z,96999.56
2023-03-26T04:36:03.563Z,96980.03
2023-03-26T04:38:39.946Z,96998.38
2023-03-26T04:41:07.837Z,96998.50
2023-03-26T04:43:42.396Z,96991.28
2023-03-26T04:46:10.665Z,96989.75
2023-03-26T04:48:41.155Z,96997.31
2023-03-26T04:51:10.201Z,96994.22
2023-03-26T04:53:37.955Z,96998.97
2023-03-26T04:56:41.064Z,96995.53
2023-03-26T04:59:18.138Z,97003.81
2023-03-26T05:01:48.780Z,97004.63
2023-03-26T05:04:16.409Z,97019.41
2023-03-26T05:06:44.554Z,96994.81
2023-03-26T05:09:11.935Z,96995.88
2023-03-26T05:11:39.681Z,96987.03
2023-03-26T05:14:11.200Z,96993.84
2023-03-26T05:16:39.709Z,96993.19
2023-03-26T05:19:07.228Z,96992.00
2023-03-26T05:21:37.034Z,96988.06
2023-03-26T05:24:06.396Z,97013.03
2023-03-26T05:26:34.754Z,96998.94
2023-03-26T05:29:03.092Z,96993.28
2023-03-26T05:31:33.707Z,97001.91
2023-03-26T05:34:01.129Z,97002.97
2023-03-26T05:36:28.864Z,97000.34
2023-03-26T05:38:56.293Z,97008.41
2023-03-26T05:41:23.868Z,96992.69
2023-03-26T05:43:51.310Z,96995.06
2023-03-26T05:46:20.483Z,96990.19
2023-03-26T05:48:47.903Z,97022.22
2023-03-26T05:51:16.106Z,96997.22
2023-03-26T05:53:44.010Z,97005.09
2023-03-26T05:56:11.916Z,97008.13
2023-03-26T05:58:39.322Z,97003.34
2023-03-26T06:01:16.759Z,97001.97
2023-03-26T06:03:46.166Z,97006.38
2023-03-26T06:06:17.247Z,97015.53
2023-03-26T06:09:01.150Z,97014.28
2023-03-26T06:11:32.302Z,97025.53
2023-03-26T06:14:00.798Z,97017.19
2023-03-26T06:16:28.610Z,97014.13
2023-03-26T06:18:57.504Z,97028.44
2023-03-26T06:21:26.391Z,97016.16
2023-03-26T06:23:54.685Z,97017.75
2023-03-26T06:26:22.598Z,97014.56
2023-03-26T06:28:49.929Z,97021.75
2023-03-26T06:31:19.318Z,97022.72
2023-03-26T06:33:47.095Z,97004.38
2023-03-26T06:36:14.728Z,97032.56
2023-03-26T06:38:42.015Z,97012.84
2023-03-26T06:41:09.588Z,97009.84
2023-03-26T06:43:37.904Z,97012.41
2023-03-26T06:46:06.031Z,97014.47
2023-03-26T06:48:33.601Z,97022.41
2023-03-26T06:51:01.207Z,97023.81
2023-03-26T06:53:28.428Z,97010.25
2023-03-26T06:55:56.041Z,97014.84
2023-03-26T06:58:23.459Z,97021.84
2023-03-26T07:00:55.801Z,97029.09
2023-03-26T07:03:24.225Z,97025.06
2023-03-26T07:05:51.878Z,97012.97
2023-03-26T07:08:19.530Z,97013.72
2023-03-26T07:10:47.499Z,96994.88
2023-03-26T07:13:14.763Z,97025.75
2023-03-26T07:15:42.428Z,97013.03
2023-03-26T07:18:09.852Z,97035.06
2023-03-26T07:20:37.899Z,97020.91
2023-03-26T07:23:05.662Z,97021.94
2023-03-26T07:25:33.792Z,97038.97
2023-03-26T07:28:27.340Z,97010.84
2023-03-26T07:31:07.449Z,97031.97
2023-03-26T07:34:09.763Z,97022.31
2023-03-26T07:37:08.139Z,97011.38
2023-03-26T07:39:47.803Z,97034.56
2023-03-26T07:43:01.273Z,97031.56
2023-03-26T07:45:43.684Z,97032.66
2023-03-26T07:48:25.421Z,97040.63
2023-03-26T07:50:56.771Z,97039.00
2023-03-26T07:53:25.055Z,97035.75
2023-03-26T07:56:55.032Z,97032.47
2023-03-26T08:00:12.324Z,97031.31
2023-03-26T08:03:12.566Z,97023.97
2023-03-26T08:06:27.099Z,97053.03
2023-03-26T08:09:10.046Z,97024.38
2023-03-26T08:12:01.920Z,97019.91
2023-03-26T08:15:03.596Z,97030.22
2023-03-26T08:18:27.343Z,97018.97
2023-03-26T08:21:17.916Z,97015.34
2023-03-26T08:24:22.913Z,97008.25
2023-03-26T08:27:38.199Z,97004.16
2023-03-26T08:30:16.819Z,97001.28
2023-03-26T08:32:54.720Z,97019.13
2023-03-26T08:35:23.480Z,96998.84
2023-03-26T08:37:51.937Z,96997.97
2023-03-26T08:41:12.413Z,97013.81
2023-03-26T08:44:41.688Z,97002.19
2023-03-26T08:47:55.737Z,96998.00
2023-03-26T08:51:03.442Z,97001.69
2023-03-26T08:54:05.038Z,97006.03
2023-03-26T08:56:59.474Z,96981.91
2023-03-26T09:00:13.745Z,96995.50
2023-03-26T09:03:11.290Z,96995.91
2023-03-26T09:05:48.061Z,96993.91
2023-03-26T09:08:18.259Z,96996.09
2023-03-26T09:10:53.543Z,96993.09
2023-03-26T09:14:03.632Z,96980.94
2023-03-26T09:16:46.379Z,96979.88
2023-03-26T09:19:58.002Z,96987.16
2023-03-26T09:23:19.755Z,96988.19
2023-03-26T09:26:18.725Z,96997.03
2023-03-26T09:29:26.755Z,96969.84
2023-03-26T09:32:25.458Z,96971.63
2023-03-26T09:34:58.716Z,96975.25
2023-03-26T09:37:32.641Z,96970.50
2023-03-26T09:40:05.387Z,96976.19
2023-03-26T09:43:25.384Z,96965.75
2023-03-26T09:46:23.362Z,96965.84
2023-03-26T09:49:12.002Z,96961.91
2023-03-26T09:52:07.147Z,96971.59
2023-03-26T09:55:01.647Z,96970.38
2023-03-26T09:58:14.285Z,96979.13
2023-03-26T10:01:19.470Z,97014.41
2023-03-26T10:04:39.796Z,96986.75
2023-03-26T10:07:58.884Z,96968.03
2023-03-26T10:10:35.693Z,96978.97
2023-03-26T10:13:28.182Z,96977.31
2023-03-26T10:16:26.713Z,96983.88
2023-03-26T10:19:17.205Z,96976.41
2023-03-26T10:22:12.210Z,96956.66
2023-03-26T10:25:21.608Z,96953.16
2023-03-26T10:28:09.679Z,96957.53
2023-03-26T10:30:56.051Z,96966.66
2023-03-26T10:34:01.373Z,96969.06
2023-03-26T10:36:57.278Z,96955.16
2023-03-26T10:40:06.079Z,96949.16
2023-03-26T10:43:05.843Z,96948.00
2023-03-26T10:46:09.985Z,96966.72
2023-03-26T10:49:06.875Z,96961.91
2023-03-26T10:52:08.297Z,96938.81
2023-03-26T10:54:56.171Z,96949.41
2023-03-26T10:57:52.877Z,96939.34
2023-03-26T11:00:25.596Z,96937.16
2023-03-26T11:03:34.697Z,96936.72
2023-03-26T11:06:12.487Z,96951.47
2023-03-26T11:09:14.205Z,96934.31
2023-03-26T11:11:49.182Z,96917.78
2023-03-26T11:15:05.165Z,96921.16
2023-03-26T11:18:09.956Z,96910.47
2023-03-26T11:21:19.075Z,96917.75
2023-03-26T11:24:31.625Z,96914.31
2023-03-26T11:27:30.585Z,96906.69
2023-03-26T11:30:18.061Z,96909.53
2023-03-26T11:32:51.679Z,96913.53
2023-03-26T11:35:40.179Z,96913.56
2023-03-26T11:41:22.869Z,96912.44
2023-03-26T11:44:11.111Z,96906.25
2023-03-26T11:46:45.603Z,96907.41
2023-03-26T11:49:19.073Z,96893.50
2023-03-26T11:51:49.066Z,96893.50
2023-03-26T11:54:17.941Z,96882.44
2023-03-26T11:57:05.888Z,96883.53
2023-03-26T12:00:18.363Z,96877.31
2023-03-26T12:02:49.062Z,96875.06
2023-03-26T12:05:26.764Z,96880.28
2023-03-26T12:08:18.104Z,96880.53
2023-03-26T12:11:01.104Z,96873.97
2023-03-26T12:13:58.623Z,96860.03
2023-03-26T12:16:38.444Z,96858.25
2023-03-26T12:19:20.496Z,96866.97
2023-03-26T12:21:52.193Z,96832.31
2023-03-26T12:24:34.155Z,96835.59
2023-03-26T12:27:28.558Z,96827.69
2023-03-26T12:30:11.849Z,96833.91
2023-03-26T12:32:46.776Z,96834.28
2023-03-26T12:35:29.459Z,96848.63
2023-03-26T12:38:17.143Z,96842.16
2023-03-26T12:40:45.514Z,96833.28
2023-03-26T12:44:53.290Z,96824.19
2023-03-26T12:47:55.673Z,96813.25
2023-03-26T12:50:34.680Z,96815.13
2023-03-26T12:53:26.882Z,96811.63
2023-03-26T12:57:12.373Z,96823.69
2023-03-26T13:00:04.976Z,96797.03
2023-03-26T13:03:29.683Z,96813.69
2023-03-26T13:06:48.535Z,96813.03
2023-03-26T13:09:39.478Z,96807.19
2023-03-26T13:12:18.667Z,96808.00
2023-03-26T13:14:59.276Z,96796.66
2023-03-26T13:17:54.176Z,96792.72
2023-03-26T13:20:45.827Z,96794.53
2023-03-26T13:23:41.878Z,96792.56
2023-03-26T13:26:45.969Z,96784.75
2023-03-26T13:29:35.385Z,96793.97
2023-03-26T13:32:18.329Z,96775.34
2023-03-26T13:34:57.769Z,96782.34
2023-03-26T13:37:56.042Z,96766.63
2023-03-26T13:40:59.339Z,96762.34
2023-03-26T13:43:45.119Z,96768.38
2023-03-26T13:46:48.696Z,96770.06
2023-03-26T13:49:41.968Z,96779.66
2023-03-26T13:52:35.032Z,96763.44
2023-03-26T13:55:30.246Z,96772.63
2023-03-26T13:58:47.792Z,96757.47
2023-03-26T14:01:35.299Z,96765.91
2023-03-26T14:04:19.928Z,96751.53
2023-03-26T14:07:14.383Z,96767.44
2023-03-26T14:10:18.532Z,96774.88
2023-03-26T14:13:37.216Z,96759.81
2023-03-26T14:16:36.581Z,96767.84
2023-03-26T14:20:00.216Z,96754.34
2023-03-26T14:23:12.583Z,96751.25
2023-03-26T14:26:17.452Z,96752.75
2023-03-26T14:29:56.905Z,96753.34
2023-03-26T14:33:28.712Z,96739.81
2023-03-26T14:36:15.210Z,96745.00
2023-03-26T14:39:35.207Z,96732.41
2023-03-26T14:42:32.080Z,96737.22
2023-03-26T14:45:33.217Z,96731.13
2023-03-26T14:48:29.083Z,96732.78
2023-03-26T14:51:34.522Z,96725.41
2023-03-26T14:54:19.990Z,96732.28
2023-03-26T14:57:17.547Z,96727.53
2023-03-26T15:00:16.031Z,96736.56
2023-03-26T15:03:40.012Z,96722.41
2023-03-26T15:06:58.564Z,96719.06
2023-03-26T15:09:49.166Z,96718.56
2023-03-26T15:12:47.394Z,96711.00
2023-03-26T15:15:35.978Z,96708.38
2023-03-26T15:19:14.161Z,96716.91
2023-03-26T15:22:29.781Z,96711.31
2023-03-26T15:25:47.835Z,96704.50
2023-03-26T15:28:39.570Z,96712.19
2023-03-26T15:31:31.140Z,96713.00
2023-03-26T15:34:55.265Z,96691.38
2023-03-26T15:38:20.961Z,96693.50
2023-03-26T15:41:25.617Z,96691.53
2023-03-26T15:44:23.337Z,96697.41
2023-03-26T15:47:18.375Z,96688.06
2023-03-26T15:50:31.907Z,96686.75
2023-03-26T15:53:34.271Z,96688.44
2023-03-26T15:56:32.907Z,96677.13
2023-03-26T15:59:39.136Z,96688.44
2023-03-26T16:02:50.543Z,96685.78
2023-03-26T16:05:26.548Z,96674.59
2023-03-26T16:08:19.044Z,96673.00
2023-03-26T16:11:00.092Z,96676.25
2023-03-26T16:13:43.334Z,96681.66
2023-03-26T16:16:50.328Z,96679.22
2023-03-26T16:20:04.198Z,96667.72
2023-03-26T16:23:10.475Z,96673.47
2023-03-26T16:26:37.228Z,96672.28
2023-03-26T16:29:28.554Z,96676.53
2023-03-26T16:32:33.684Z,96681.13
2023-03-26T16:35:47.062Z,96666.84
2023-03-26T16:38:18.632Z,96681.94
2023-03-26T16:41:50.488Z,96675.66
2023-03-26T16:45:02.388Z,96677.97
2023-03-26T16:48:16.145Z,96669.50
2023-03-26T16:52:09.793Z,96672.38
2023-03-26T16:55:24.899Z,96671.94
2023-03-26T16:58:26.658Z,96672.56
2023-03-26T17:01:28.309Z,96670.38
2023-03-26T17:04:06.517Z,96681.50
2023-03-26T17:07:30.199Z,96685.72
2023-03-26T17:10:32.080Z,96678.38
2023-03-26T17:13:16.875Z,96678.44
2023-03-26T17:16:01.988Z,96674.81
2023-03-26T17:22:45.292Z,96668.22
2023-03-26T17:29:37.061Z,96674.53
2023-03-26T17:37:49.753Z,96687.28
2023-03-26T17:41:01.162Z,96687.31
2023-03-26T17:43:56.877Z,96687.06
2023-03-26T17:46:48.528Z,96665.97
2023-03-26T17:50:21.988Z,96672.19
2023-03-26T17:53:31.462Z,96678.19
2023-03-26T17:56:12.723Z,96674.16
2023-03-26T17:59:11.680Z,96676.38
2023-03-26T18:02:08.383Z,96681.91
2023-03-26T18:04:45.090Z,96681.34
2023-03-26T18:08:16.230Z,96675.03
2023-03-26T18:11:14.155Z,96671.00
2023-03-26T18:13:59.803Z,96678.31
2023-03-26T18:16:49.852Z,96677.66
2023-03-26T18:19:23.004Z,96677.19
2023-03-26T18:21:54.146Z,96682.00
2023-03-26T18:24:29.388Z,96675.94
2023-03-26T18:27:02.999Z,96672.19
2023-03-26T18:29:36.737Z,96684.16
2023-03-26T18:32:26.266Z,96677.75
2023-03-26T18:35:13.555Z,96678.09
2023-03-26T18:37:44.305Z,96690.50
2023-03-26T18:40:21.555Z,96686.03
2023-03-26T18:42:57.703Z,96700.75
2023-03-26T18:45:48.351Z,96687.16
2023-03-26T18:48:33.926Z,96698.13
2023-03-26T18:51:07.437Z,96680.59
2023-03-26T18:54:06.756Z,96684.91
2023-03-26T18:56:41.768Z,96692.38
2023-03-26T18:59:30.162Z,96681.81
2023-03-26T19:02:13.681Z,96679.59
2023-03-26T19:04:46.797Z,96675.75
2023-03-26T19:07:24.144Z,96683.78
2023-03-26T19:09:56.388Z,96673.44
2023-03-26T19:12:33.286Z,96689.13
2023-03-26T19:15:17.544Z,96689.34
2023-03-26T19:17:49.730Z,96682.81
2023-03-26T19:20:24.102Z,96673.75
2023-03-26T19:22:52.918Z,96677.78
2023-03-26T19:25:29.949Z,96673.94
2023-03-26T19:27:57.806Z,96676.00
2023-03-26T19:30:39.600Z,96664.72
2023-03-26T19:33:19.075Z,96661.97
2023-03-26T19:35:59.887Z,96669.13
2023-03-26T19:38:38.009Z,96671.28
2023-03-26T19:41:05.657Z,96662.88
2023-03-26T19:43:33.542Z,96656.28
2023-03-26T19:46:01.395Z,96662.31
2023-03-26T19:48:45.760Z,96658.69
2023-03-26T19:51:31.978Z,96652.72
2023-03-26T19:54:04.199Z,96662.81
2023-03-26T19:56:31.911Z,96647.28
2023-03-26T19:58:59.614Z,96657.56
2023-03-26T20:01:30.514Z,96649.22
2023-03-26T20:04:05.322Z,96640.28
2023-03-26T20:06:42.461Z,96644.00
2023-03-26T20:09:13.476Z,96645.09
2023-03-26T20:11:41.334Z,96641.53
2023-03-26T20:14:26.151Z,96630.59
2023-03-26T20:16:54.074Z,96624.97
2023-03-26T20:19:25.223Z,96623.31
2023-03-26T20:21:52.913Z,96626.09
2023-03-26T20:24:21.737Z,96617.41
2023-03-26T20:26:49.086Z,96616.97
2023-03-26T20:29:17.658Z,96610.53
2023-03-26T20:31:46.047Z,96606.13
2023-03-26T20:34:23.693Z,96596.88
2023-03-26T20:36:55.437Z,96597.81
2023-03-26T20:39:32.471Z,96592.34
2023-03-26T20:41:59.757Z,96591.06
2023-03-26T20:44:28.096Z,96589.84
2023-03-26T20:46:56.702Z,96577.97
2023-03-26T20:49:25.112Z,96575.06
2023-03-26T20:51:52.853Z,96573.66
2023-03-26T20:54:25.274Z,96575.16
2023-03-26T20:56:54.466Z,96571.00
2023-03-26T20:59:27.021Z,96561.09
2023-03-26T21:01:57.398Z,96555.88
2023-03-26T21:04:26.893Z,96550.66
2023-03-26T21:07:00.228Z,96547.66
2023-03-26T21:09:36.758Z,96550.84
2023-03-26T21:12:17.063Z,96540.44
2023-03-26T21:14:45.094Z,96543.50
2023-03-26T21:17:18.062Z,96538.28
2023-03-26T21:19:47.270Z,96539.81
2023-03-26T21:22:28.908Z,96535.47
2023-03-26T21:25:34.610Z,96538.78
2023-03-26T21:28:29.174Z,96540.19
2023-03-26T21:31:14.859Z,96545.13
2023-03-26T21:33:42.713Z,96551.03
2023-03-26T21:36:11.966Z,96549.91
2023-03-26T21:38:40.676Z,96556.09
2023-03-26T21:41:23.215Z,96543.03
2023-03-26T21:43:51.691Z,96547.59
2023-03-26T21:46:41.090Z,96542.53
2023-03-26T21:49:11.780Z,96540.72
2023-03-26T21:51:40.493Z,96536.34
2023-03-26T21:54:17.001Z,96528.81
2023-03-26T21:57:17.638Z,96522.78
2023-03-26T22:00:23.708Z,96525.13
2023-03-26T22:03:27.678Z,96513.72
2023-03-26T22:06:08.327Z,96517.66
2023-03-26T22:08:42.123Z,96519.75
2023-03-26T22:11:12.745Z,96510.13
2023-03-26T22:13:40.375Z,96518.94
2023-03-26T22:16:10.758Z,96521.78
2023-03-26T22:18:38.440Z,96525.59
2023-03-26T22:21:06.034Z,96526.81
2023-03-26T22:23:38.258Z,96525.53
2023-03-26T22:26:07.281Z,96528.41
2023-03-26T22:28:35.209Z,96522.75
2023-03-26T22:31:09.185Z,96524.25
2023-03-26T22:33:40.159Z,96512.03
2023-03-26T22:36:22.641Z,96514.47
2023-03-26T22:38:53.924Z,96509.25
2023-03-26T22:41:23.050Z,96504.03
2023-03-26T22:43:54.639Z,96505.16
2023-03-26T22:46:22.940Z,96505.00
2023-03-26T22:48:51.549Z,96508.00
2023-03-26T22:51:19.260Z,96503.16
2023-03-26T22:53:47.279Z,96500.25
2023-03-26T22:56:15.568Z,96489.78
2023-03-26T22:58:43.271Z,96482.94
2023-03-26T23:01:23.112Z,96482.47
2023-03-26T23:03:50.985Z,96477.09
2023-03-26T23:06:18.533Z,96475.97
2023-03-26T23:08:46.345Z,96479.56
2023-03-26T23:11:17.964Z,96478.38
2023-03-26T23:13:47.857Z,96476.28
2023-03-26T23:16:17.408Z,96478.22
2023-03-26T23:18:45.817Z,96469.19
2023-03-26T23:21:18.454Z,96465.66
2023-03-26T23:23:47.614Z,96460.75
2023-03-26T23:26:15.680Z,96458.28
2023-03-26T23:28:43.722Z,96454.56
2023-03-26T23:31:12.524Z,96454.41
2023-03-26T23:33:50.503Z,96455.22
2023-03-26T23:36:20.621Z,96454.97
2023-03-26T23:38:49.043Z,96447.59
2023-03-26T23:41:21.650Z,96447.75
2023-03-26T23:43:55.710Z,96444.38
2023-03-26T23:46:30.635Z,96446.13
2023-03-26T23:49:05.401Z,96445.19
2023-03-26T23:51:33.100Z,96449.69
2023-03-26T23:54:01.599Z,96443.50
2023-03-26T23:56:30.099Z,96457.25
2023-03-26T23:58:59.391Z,96456.56
